Time;durP1;ratioP1;P1;durP2;ratioP2;P2;SDS_P1;SDS_P2;PMS_P1;PMS_P2;Temp;Humidity;BMP_temperature;BMP_pressure;BME280_temperature;BME280_humidity;BME280_pressure;Samples;Min_cycle;Max_cycle;Signal;HPM_P1;HPM_P2
2023/12/13 00:00:52;;;;;;;;;;;;;;;25.24;19.96;97123.34;5026128;28;19921;-87
2023/12/13 00:03:18;;;;;;;;;;;;;;;24.53;20.68;97125.38;5025745;28;19926;-86
2023/12/13 00:05:44;;;;;;;;;;;;;;;24.33;21.09;97113.72;5030397;28;19940;-86
2023/12/13 00:08:10;;;;;;;;;;;;;;;23.83;21.41;97106.34;5013424;28;19932;-89
2023/12/13 00:10:36;;;;;;;;;;;;;;;23.83;21.58;97109.16;5022877;28;19962;-89
2023/12/13 00:13:03;;;;;;;;;;;;;;;24.19;21.15;97097.44;5017978;28;19918;-89
2023/12/13 00:15:29;;;;;;;;;;;;;;;24.01;21.39;97098.06;5016531;28;20450;-89
2023/12/13 00:17:56;;;;;;;;;;;;;;;24.06;21.30;97091.13;5031873;28;19974;-89
2023/12/13 00:20:22;;;;;;;;;;;;;;;22.84;22.52;97082.97;5030837;28;19929;-89
2023/12/13 00:22:48;;;;;;;;;;;;;;;23.69;21.71;97087.25;5029645;28;19944;-89
2023/12/13 00:25:14;;;;;;;;;;;;;;;23.37;21.97;97090.41;5028410;28;19932;-90
2023/12/13 00:27:40;;;;;;;;;;;;;;;24.18;21.18;97095.09;5022296;28;19921;-89
2023/12/13 00:30:06;;;;;;;;;;;;;;;24.76;20.50;97082.00;5025311;28;20016;-89
2023/12/13 00:32:32;;;;;;;;;;;;;;;24.51;20.71;97082.16;5026630;28;19933;-90
2023/12/13 00:34:58;;;;;;;;;;;;;;;23.99;21.26;97068.94;5028612;28;20283;-90
2023/12/13 00:37:25;;;;;;;;;;;;;;;23.76;21.75;97067.38;5029860;28;19921;-89
2023/12/13 00:39:51;;;;;;;;;;;;;;;23.96;21.41;97070.63;5031198;28;19921;-89
2023/12/13 00:42:17;;;;;;;;;;;;;;;24.33;20.94;97065.25;5028650;28;19921;-91
2023/12/13 00:44:43;;;;;;;;;;;;;;;24.32;20.98;97069.31;5029913;28;19921;-90
2023/12/13 00:47:09;;;;;;;;;;;;;;;24.00;21.16;97065.66;5023995;28;20345;-88
2023/12/13 00:49:35;;;;;;;;;;;;;;;24.11;20.98;97056.88;5022166;28;19933;-89
2023/12/13 00:52:02;;;;;;;;;;;;;;;24.11;21.18;97058.91;5027676;28;19929;-88
2023/12/13 00:54:29;;;;;;;;;;;;;;;23.64;21.58;97051.38;5029050;28;19921;-88
2023/12/13 00:56:55;;;;;;;;;;;;;;;23.33;21.94;97045.69;5028475;28;20297;-89
2023/12/13 00:59:21;;;;;;;;;;;;;;;24.08;21.09;97049.41;5025897;28;19957;-88
2023/12/13 01:01:47;;;;;;;;;;;;;;;24.26;20.87;97037.47;5029312;28;19948;-88
2023/12/13 01:04:13;;;;;;;;;;;;;;;24.50;20.59;97030.91;5024556;28;19921;-88
2023/12/13 01:06:39;;;;;;;;;;;;;;;24.32;20.81;97027.25;5022943;28;19933;-88
2023/12/13 01:09:06;;;;;;;;;;;;;;;24.59;20.69;97028.13;5028273;28;20442;-88
2023/12/13 01:11:32;;;;;;;;;;;;;;;25.52;19.80;97037.06;5003161;28;20317;-89
2023/12/13 01:13:58;;;;;;;;;;;;;;;25.53;19.33;97026.59;5012039;28;20267;-89
2023/12/13 01:16:24;;;;;;;;;;;;;;;24.23;20.96;97030.75;5030036;28;19928;-89
2023/12/13 01:18:50;;;;;;;;;;;;;;;22.80;22.23;97029.16;5028177;28;19925;-88
2023/12/13 01:21:16;;;;;;;;;;;;;;;23.10;22.33;97032.09;5029204;28;19921;-88
2023/12/13 01:23:42;;;;;;;;;;;;;;;23.68;21.71;97021.22;5027298;28;19917;-88
2023/12/13 01:26:08;;;;;;;;;;;;;;;24.09;21.36;97022.91;5029438;28;19921;-89
2023/12/13 01:28:35;;;;;;;;;;;;;;;24.92;20.25;97017.16;5028990;28;19921;-88
2023/12/13 01:31:06;;;;;;;;;;;;;;;25.01;20.02;97005.16;5028927;28;19917;-88
2023/12/13 01:33:32;;;;;;;;;;;;;;;23.54;21.51;97012.56;5025476;28;19921;-88
2023/12/13 01:36:00;;;;;;;;;;;;;;;23.89;21.20;97003.63;5015279;28;19928;-88
2023/12/13 01:38:27;;;;;;;;;;;;;;;23.77;21.48;96992.47;5028080;28;19921;-87
2023/12/13 01:40:53;;;;;;;;;;;;;;;23.84;21.53;96995.78;5028967;28;20404;-87
2023/12/13 01:43:23;;;;;;;;;;;;;;;24.82;20.56;97006.38;5020883;28;20298;-87
2023/12/13 01:45:50;;;;;;;;;;;;;;;25.48;20.01;97015.97;5029680;28;19920;-87
2023/12/13 01:48:17;;;;;;;;;;;;;;;25.67;19.35;97000.66;5030140;28;20374;-87
2023/12/13 01:50:43;;;;;;;;;;;;;;;25.37;19.73;97000.31;5029474;28;19921;-87
2023/12/13 01:53:10;;;;;;;;;;;;;;;24.54;20.41;96981.00;5026921;28;19925;-87
2023/12/13 01:55:36;;;;;;;;;;;;;;;23.01;22.35;96995.59;5003599;28;19921;-87
2023/12/13 01:58:03;;;;;;;;;;;;;;;22.28;23.29;96999.63;5029605;28;19928;-87
2023/12/13 02:00:29;;;;;;;;;;;;;;;22.30;23.13;96988.00;5029929;28;19925;-87
2023/12/13 02:02:56;;;;;;;;;;;;;;;22.83;22.63;96984.25;5027447;28;20007;-87
2023/12/13 02:05:25;;;;;;;;;;;;;;;23.01;22.39;96989.25;5028629;28;19927;-87
2023/12/13 02:07:52;;;;;;;;;;;;;;;23.25;22.14;96979.16;5008877;28;20012;-87
2023/12/13 02:10:18;;;;;;;;;;;;;;;23.71;21.58;96967.06;5028397;28;20382;-87
2023/12/13 02:12:44;;;;;;;;;;;;;;;23.86;21.18;96965.28;5007762;28;19974;-87
2023/12/13 02:15:11;;;;;;;;;;;;;;;23.25;22.02;96968.75;5028282;28;19998;-87
2023/12/13 02:17:47;;;;;;;;;;;;;;;23.24;22.18;96967.16;5028321;28;20004;-87
2023/12/13 02:20:13;;;;;;;;;;;;;;;22.92;22.39;96953.53;5028277;28;19927;-87
2023/12/13 02:22:39;;;;;;;;;;;;;;;22.82;22.42;96935.13;5027023;28;19917;-87
2023/12/13 02:25:11;;;;;;;;;;;;;;;23.65;21.65;96948.50;5030876;28;20401;-87
2023/12/13 02:27:37;;;;;;;;;;;;;;;23.10;22.26;96944.50;5030304;28;19921;-88
2023/12/13 02:30:05;;;;;;;;;;;;;;;23.11;22.29;96948.88;5031275;28;19964;-87
2023/12/13 02:32:31;;;;;;;;;;;;;;;23.87;21.37;96938.81;5023915;28;19925;-87
2023/12/13 02:34:57;;;;;;;;;;;;;;;24.56;20.33;96930.03;5030318;28;19917;-87
2023/12/13 02:37:24;;;;;;;;;;;;;;;24.70;20.63;96921.00;5031605;28;19944;-87
2023/12/13 02:39:50;;;;;;;;;;;;;;;24.34;20.83;96932.16;5031868;28;20350;-87
2023/12/13 02:42:16;;;;;;;;;;;;;;;24.88;20.32;96917.47;5031439;28;19928;-87
2023/12/13 02:44:43;;;;;;;;;;;;;;;24.38;20.79;96915.97;5027039;28;20289;-86
2023/12/13 02:47:09;;;;;;;;;;;;;;;24.54;20.75;96916.47;5033391;28;20008;-86
2023/12/13 02:49:35;;;;;;;;;;;;;;;24.61;20.59;96904.16;5030970;28;19921;-86
2023/12/13 02:52:01;;;;;;;;;;;;;;;24.34;20.75;96909.72;5029576;28;19942;-87
2023/12/13 02:54:27;;;;;;;;;;;;;;;24.37;20.75;96906.75;5029193;28;19921;-87
2023/12/13 02:56:54;;;;;;;;;;;;;;;24.67;20.25;96907.88;5027132;28;19922;-86
2023/12/13 02:59:20;;;;;;;;;;;;;;;24.49;20.39;96907.88;5028783;28;19925;-87
2023/12/13 03:01:46;;;;;;;;;;;;;;;24.87;20.18;96905.47;5030150;28;19977;-87
2023/12/13 03:04:12;;;;;;;;;;;;;;;25.08;20.18;96904.53;5023187;28;20004;-87
2023/12/13 03:06:38;;;;;;;;;;;;;;;25.11;20.09;96885.94;5027120;28;20004;-89
2023/12/13 03:09:04;;;;;;;;;;;;;;;24.59;20.47;96889.81;5030426;28;19927;-88
2023/12/13 03:11:30;;;;;;;;;;;;;;;24.49;20.55;96879.81;5029532;28;19925;-89
2023/12/13 03:13:56;;;;;;;;;;;;;;;23.86;21.27;96886.00;5028426;28;20785;-90
2023/12/13 03:16:24;;;;;;;;;;;;;;;24.47;20.77;96883.09;5027734;28;19972;-89
2023/12/13 03:18:50;;;;;;;;;;;;;;;25.30;20.03;96885.44;5028798;28;20370;-89
2023/12/13 03:21:16;;;;;;;;;;;;;;;25.60;19.36;96880.84;5029547;28;19921;-89
2023/12/13 03:23:42;;;;;;;;;;;;;;;25.94;19.14;96876.84;5030799;28;20310;-90
2023/12/13 03:26:08;;;;;;;;;;;;;;;25.54;19.47;96871.53;5029252;28;19928;-89
2023/12/13 03:28:35;;;;;;;;;;;;;;;25.41;19.42;96862.47;5028934;28;20019;-89
2023/12/13 03:31:06;;;;;;;;;;;;;;;25.45;19.59;96867.97;5028676;28;19918;-90
2023/12/13 03:33:32;;;;;;;;;;;;;;;24.43;20.71;96868.44;5029975;28;20469;-89
2023/12/13 03:35:58;;;;;;;;;;;;;;;24.45;20.71;96865.16;5025921;28;19966;-89
2023/12/13 03:38:24;;;;;;;;;;;;;;;24.66;20.21;96858.63;5023105;28;19928;-89
2023/12/13 03:40:50;;;;;;;;;;;;;;;24.57;20.53;96855.81;5030208;28;19972;-90
2023/12/13 03:43:16;;;;;;;;;;;;;;;25.12;19.95;96848.94;5024470;28;19973;-89
2023/12/13 03:45:42;;;;;;;;;;;;;;;25.59;19.58;96845.59;5030177;28;19978;-91
2023/12/13 03:48:08;;;;;;;;;;;;;;;25.98;19.29;96852.13;5030280;28;20409;-87
2023/12/13 03:50:34;;;;;;;;;;;;;;;25.86;19.26;96847.50;5030898;28;19928;-87
2023/12/13 03:53:00;;;;;;;;;;;;;;;26.01;18.91;96851.19;5029820;28;20016;-87
2023/12/13 03:55:26;;;;;;;;;;;;;;;25.10;19.88;96845.84;5029957;28;20021;-87
2023/12/13 03:57:52;;;;;;;;;;;;;;;24.59;20.19;96847.72;5030186;28;19929;-87
2023/12/13 04:00:19;;;;;;;;;;;;;;;24.02;20.96;96844.47;5030393;28;19921;-87
2023/12/13 04:02:45;;;;;;;;;;;;;;;23.96;21.17;96846.34;5029164;28;19925;-87
2023/12/13 04:05:11;;;;;;;;;;;;;;;24.24;20.83;96847.22;5028601;28;20309;-87
2023/12/13 04:07:37;;;;;;;;;;;;;;;24.74;20.43;96854.25;5029761;28;19921;-87
2023/12/13 04:10:05;;;;;;;;;;;;;;;25.42;19.98;96853.56;5028992;28;19962;-87
2023/12/13 04:12:31;;;;;;;;;;;;;;;25.90;19.21;96854.53;5006394;28;20309;-87
2023/12/13 04:14:57;;;;;;;;;;;;;;;26.01;18.85;96862.44;5029496;28;19922;-89
2023/12/13 04:17:23;;;;;;;;;;;;;;;25.78;19.15;96852.69;5028688;28;20028;-89
2023/12/13 04:19:49;;;;;;;;;;;;;;;25.75;19.47;96847.25;5029950;28;19962;-89
2023/12/13 04:22:15;;;;;;;;;;;;;;;25.49;19.49;96844.06;5022801;28;19974;-90
2023/12/13 04:24:41;;;;;;;;;;;;;;;25.61;19.58;96839.47;5022371;28;19917;-89
2023/12/13 04:27:08;;;;;;;;;;;;;;;26.19;18.78;96839.84;5028120;28;20019;-89
2023/12/13 04:29:34;;;;;;;;;;;;;;;25.84;19.07;96830.31;5025933;28;19917;-89
2023/12/13 04:32:00;;;;;;;;;;;;;;;25.69;19.34;96829.47;5016810;28;20401;-89
2023/12/13 04:34:26;;;;;;;;;;;;;;;24.83;20.08;96815.00;5027226;28;19921;-89
2023/12/13 04:36:53;;;;;;;;;;;;;;;24.30;20.93;96813.69;5029828;28;19965;-88
2023/12/13 04:39:19;;;;;;;;;;;;;;;24.43;20.80;96812.31;5030103;28;20020;-90
2023/12/13 04:41:45;;;;;;;;;;;;;;;24.53;20.67;96805.44;5029490;28;19921;-89
2023/12/13 04:44:12;;;;;;;;;;;;;;;24.29;20.76;96801.72;5031124;28;20012;-89
2023/12/13 04:46:39;;;;;;;;;;;;;;;24.01;20.83;96798.03;5028542;28;19924;-89
2023/12/13 04:49:05;;;;;;;;;;;;;;;24.22;20.73;96799.22;5011103;28;20302;-89
2023/12/13 04:51:32;;;;;;;;;;;;;;;23.65;21.26;96800.75;5027149;28;19929;-89
2023/12/13 04:53:59;;;;;;;;;;;;;;;24.33;20.63;96804.34;5029826;28;20017;-89
2023/12/13 04:56:25;;;;;;;;;;;;;;;24.56;20.50;96792.50;5024703;28;20297;-89
2023/12/13 04:58:51;;;;;;;;;;;;;;;24.38;20.84;96787.69;5037409;28;19933;-89
2023/12/13 05:01:17;;;;;;;;;;;;;;;24.12;21.04;96791.25;5022947;28;20017;-89
2023/12/13 05:03:43;;;;;;;;;;;;;;;24.34;20.75;96789.09;5016846;28;20267;-89
2023/12/13 05:06:09;;;;;;;;;;;;;;;24.43;20.70;96789.09;5011906;28;19925;-88
2023/12/13 05:08:35;;;;;;;;;;;;;;;24.38;20.43;96782.09;5011455;28;20397;-87
2023/12/13 05:11:02;;;;;;;;;;;;;;;24.27;20.57;96775.38;5025209;28;19921;-87
2023/12/13 05:13:28;;;;;;;;;;;;;;;24.26;20.96;96785.03;5028948;28;19921;-89
2023/12/13 05:15:54;;;;;;;;;;;;;;;24.95;20.12;96776.75;5028819;28;19929;-92
2023/12/13 05:18:20;;;;;;;;;;;;;;;25.15;19.79;96777.00;5027836;28;19928;-91
2023/12/13 05:20:48;;;;;;;;;;;;;;;25.06;19.72;96775.03;5027792;28;19929;-90
2023/12/13 05:23:14;;;;;;;;;;;;;;;25.30;19.57;96778.66;5023238;28;19978;-91
2023/12/13 05:25:40;;;;;;;;;;;;;;;24.81;20.20;96778.16;5027213;28;20447;-89
2023/12/13 05:28:08;;;;;;;;;;;;;;;25.25;19.96;96776.50;5025656;28;20471;-90
2023/12/13 05:30:34;;;;;;;;;;;;;;;24.97;19.93;96777.06;5022632;28;20017;-88
2023/12/13 05:33:00;;;;;;;;;;;;;;;24.84;20.29;96785.66;5028250;28;19936;-88
2023/12/13 05:35:26;;;;;;;;;;;;;;;24.52;20.48;96775.84;5028734;28;20394;-86
2023/12/13 05:37:52;;;;;;;;;;;;;;;23.84;21.06;96781.97;5021734;28;19929;-86
2023/12/13 05:40:18;;;;;;;;;;;;;;;23.47;21.70;96769.09;5025511;28;20073;-84
2023/12/13 05:42:44;;;;;;;;;;;;;;;23.14;21.89;96768.75;5028166;28;19928;-83
2023/12/13 05:45:11;;;;;;;;;;;;;;;23.74;21.56;96769.94;5026662;28;19968;-83
2023/12/13 05:47:37;;;;;;;;;;;;;;;24.42;20.65;96762.28;5021887;28;19921;-84
2023/12/13 05:50:04;;;;;;;;;;;;;;;24.61;20.65;96761.03;5023785;28;20403;-84
2023/12/13 05:52:32;;;;;;;;;;;;;;;24.72;20.28;96761.31;5008807;28;20036;-84
2023/12/13 05:54:59;;;;;;;;;;;;;;;25.39;19.49;96753.34;5027678;28;19935;-84
2023/12/13 05:57:25;;;;;;;;;;;;;;;25.25;20.00;96751.22;5028635;28;20301;-84
2023/12/13 05:59:51;;;;;;;;;;;;;;;25.33;19.73;96748.84;5024546;28;20442;-86
2023/12/13 06:02:18;;;;;;;;;;;;;;;24.84;20.05;96754.78;5007978;28;19966;-85
2023/12/13 06:04:44;;;;;;;;;;;;;;;24.47;20.70;96748.41;5009207;28;20366;-83
2023/12/13 06:07:10;;;;;;;;;;;;;;;24.30;20.82;96741.53;5004499;28;19922;-83
2023/12/13 06:09:36;;;;;;;;;;;;;;;23.96;21.32;96748.22;5030296;28;19917;-83
2023/12/13 06:12:03;;;;;;;;;;;;;;;24.54;20.80;96753.69;5032716;28;20282;-83
2023/12/13 06:14:29;;;;;;;;;;;;;;;24.56;20.49;96747.59;5031765;28;19913;-83
2023/12/13 06:16:55;;;;;;;;;;;;;;;24.69;20.49;96746.19;5032309;28;19921;-83
2023/12/13 06:19:21;;;;;;;;;;;;;;;24.57;20.62;96733.13;5057878;28;19977;-83
2023/12/13 06:21:48;;;;;;;;;;;;;;;24.59;20.90;96741.06;5032538;28;19921;-83
2023/12/13 06:24:14;;;;;;;;;;;;;;;24.78;20.69;96734.22;5032747;28;19921;-83
2023/12/13 06:26:40;;;;;;;;;;;;;;;25.31;20.24;96738.09;5031539;28;19986;-83
2023/12/13 06:29:06;;;;;;;;;;;;;;;26.02;19.53;96734.63;5032362;28;19917;-83
2023/12/13 06:31:32;;;;;;;;;;;;;;;25.89;19.56;96736.88;5028157;28;19964;-84
2023/12/13 06:33:58;;;;;;;;;;;;;;;26.01;19.43;96727.41;5031179;28;19991;-83
2023/12/13 06:36:25;;;;;;;;;;;;;;;26.56;18.48;96728.56;5031832;28;19921;-83
2023/12/13 06:38:51;;;;;;;;;;;;;;;26.85;18.54;96727.84;5032257;28;19921;-83
2023/12/13 06:41:17;;;;;;;;;;;;;;;26.93;18.53;96733.88;5031993;28;19977;-83
2023/12/13 06:43:43;;;;;;;;;;;;;;;27.08;18.57;96732.59;5028243;28;19929;-83
2023/12/13 06:46:09;;;;;;;;;;;;;;;27.13;18.53;96731.13;5031774;28;20413;-83
2023/12/13 06:48:35;;;;;;;;;;;;;;;26.99;18.41;96734.72;5031773;28;20015;-83
2023/12/13 06:51:01;;;;;;;;;;;;;;;26.26;18.99;96734.59;5031378;28;19913;-83
2023/12/13 06:53:28;;;;;;;;;;;;;;;26.60;18.98;96743.25;5030925;28;20406;-83
2023/12/13 06:55:55;;;;;;;;;;;;;;;27.00;18.44;96747.56;5025110;28;20007;-83
2023/12/13 06:58:22;;;;;;;;;;;;;;;27.06;18.49;96748.44;5031979;28;20013;-83
2023/12/13 07:00:48;;;;;;;;;;;;;;;26.64;18.85;96735.38;5023136;28;20370;-83
2023/12/13 07:03:14;;;;;;;;;;;;;;;26.03;19.45;96727.72;5032325;28;20016;-83
2023/12/13 07:05:40;;;;;;;;;;;;;;;25.98;19.71;96717.13;5014540;28;19932;-83
2023/12/13 07:08:06;;;;;;;;;;;;;;;26.26;19.64;96714.91;5032054;28;20324;-83
2023/12/13 07:10:33;;;;;;;;;;;;;;;26.49;19.35;96717.66;5030890;28;19917;-83
2023/12/13 07:12:59;;;;;;;;;;;;;;;26.71;19.49;96722.94;5030821;28;19925;-83
2023/12/13 07:15:25;;;;;;;;;;;;;;;26.74;19.52;96739.66;5029202;28;19917;-83
2023/12/13 07:17:51;;;;;;;;;;;;;;;26.93;19.24;96740.28;5028952;28;20374;-83
2023/12/13 07:20:19;;;;;;;;;;;;;;;26.28;19.51;96734.91;5031640;28;19966;-83
2023/12/13 07:22:45;;;;;;;;;;;;;;;25.90;20.38;96730.00;5027098;28;20386;-83
2023/12/13 07:25:11;;;;;;;;;;;;;;;25.67;20.32;96720.28;5031230;28;19966;-83
2023/12/13 07:27:37;;;;;;;;;;;;;;;25.56;20.74;96722.84;5030798;28;19921;-83
2023/12/13 07:30:04;;;;;;;;;;;;;;;25.74;20.33;96721.97;5031732;28;20020;-83
2023/12/13 07:32:31;;;;;;;;;;;;;;;25.63;20.83;96718.91;5024817;28;20414;-83
2023/12/13 07:34:57;;;;;;;;;;;;;;;25.59;20.88;96721.91;5029478;28;19921;-83
2023/12/13 07:37:23;;;;;;;;;;;;;;;25.41;20.96;96717.13;5030337;28;19993;-83
2023/12/13 07:39:49;;;;;;;;;;;;;;;25.69;20.78;96714.19;5030820;28;19965;-83
2023/12/13 07:42:15;;;;;;;;;;;;;;;25.98;20.35;96709.47;5030249;28;19921;-83
2023/12/13 07:44:43;;;;;;;;;;;;;;;26.48;20.13;96718.16;5030283;28;19928;-83
2023/12/13 07:47:09;;;;;;;;;;;;;;;27.02;19.43;96717.66;5030838;28;19963;-83
2023/12/13 07:49:37;;;;;;;;;;;;;;;26.85;19.64;96705.31;5031141;28;20451;-83
2023/12/13 07:52:05;;;;;;;;;;;;;;;26.40;20.04;96728.22;5030908;28;20366;-83
2023/12/13 07:54:32;;;;;;;;;;;;;;;26.29;20.28;96725.97;5031299;28;19921;-83
2023/12/13 07:56:58;;;;;;;;;;;;;;;26.56;19.84;96720.09;5030904;28;19924;-83
2023/12/13 07:59:24;;;;;;;;;;;;;;;26.36;20.15;96708.72;5030029;28;20019;-83
2023/12/13 08:01:50;;;;;;;;;;;;;;;26.13;20.48;96715.19;5030773;28;19987;-83
2023/12/13 08:04:17;;;;;;;;;;;;;;;26.19;20.64;96707.63;5031196;28;19924;-83
2023/12/13 08:06:43;;;;;;;;;;;;;;;26.46;20.06;96712.25;5030939;28;19928;-83
2023/12/13 08:09:09;;;;;;;;;;;;;;;26.52;20.11;96704.66;5030521;28;19964;-83
2023/12/13 08:11:35;;;;;;;;;;;;;;;26.94;19.73;96698.78;5011509;28;20400;-83
2023/12/13 08:14:01;;;;;;;;;;;;;;;27.05;19.57;96701.81;5029520;28;19921;-83
2023/12/13 08:16:27;;;;;;;;;;;;;;;26.92;19.52;96698.50;5007236;28;20289;-83
2023/12/13 08:18:54;;;;;;;;;;;;;;;26.12;20.44;96693.13;5028018;28;19928;-83
2023/12/13 08:21:21;;;;;;;;;;;;;;;25.73;21.03;96693.09;5031307;28;20414;-83
2023/12/13 08:23:47;;;;;;;;;;;;;;;25.79;21.04;96693.97;5013278;28;20023;-83
2023/12/13 08:26:13;;;;;;;;;;;;;;;26.55;20.42;96693.22;5030496;28;20447;-83
2023/12/13 08:28:39;;;;;;;;;;;;;;;26.80;20.06;96686.25;5029846;28;20019;-83
2023/12/13 08:31:07;;;;;;;;;;;;;;;26.55;20.32;96676.34;5026510;28;19928;-83
2023/12/13 08:33:33;;;;;;;;;;;;;;;25.95;20.74;96671.03;5030230;28;19921;-83
2023/12/13 08:35:59;;;;;;;;;;;;;;;25.85;20.97;96671.59;5030145;28;20031;-83
2023/12/13 08:38:26;;;;;;;;;;;;;;;25.93;21.27;96675.59;5030460;28;19921;-83
2023/12/13 08:40:52;;;;;;;;;;;;;;;26.32;20.56;96660.31;5030156;28;19970;-83
2023/12/13 08:43:18;;;;;;;;;;;;;;;26.45;20.51;96652.34;5029132;28;20390;-83
2023/12/13 08:45:44;;;;;;;;;;;;;;;26.48;20.58;96662.66;5030802;28;19917;-83
2023/12/13 08:48:10;;;;;;;;;;;;;;;26.78;20.42;96671.91;5031011;28;19925;-83
2023/12/13 08:50:36;;;;;;;;;;;;;;;27.06;20.15;96664.69;5030693;28;19924;-83
2023/12/13 08:53:02;;;;;;;;;;;;;;;26.92;19.95;96667.50;5029377;28;19917;-83
2023/12/13 08:55:28;;;;;;;;;;;;;;;26.85;20.12;96671.50;5010821;28;20379;-83
2023/12/13 08:57:54;;;;;;;;;;;;;;;26.57;20.05;96656.91;5018741;28;19922;-83
2023/12/13 09:00:20;;;;;;;;;;;;;;;26.53;20.15;96666.81;5029744;28;20398;-83
2023/12/13 09:02:46;;;;;;;;;;;;;;;26.34;20.63;96660.59;5030478;28;19925;-83
2023/12/13 09:05:13;;;;;;;;;;;;;;;25.81;20.79;96666.16;5017544;28;19922;-83
2023/12/13 09:07:40;;;;;;;;;;;;;;;25.60;21.13;96661.59;5030620;28;20388;-83
2023/12/13 09:10:08;;;;;;;;;;;;;;;25.74;21.42;96654.50;5012520;28;19960;-87
2023/12/13 09:12:34;;;;;;;;;;;;;;;25.93;21.05;96641.84;5030442;28;20015;-83
2023/12/13 09:15:00;;;;;;;;;;;;;;;25.75;21.13;96639.97;5024366;28;19925;-83
2023/12/13 09:17:26;;;;;;;;;;;;;;;25.78;21.51;96649.47;5028982;28;19921;-85
2023/12/13 09:19:52;;;;;;;;;;;;;;;25.90;21.44;96654.06;5025693;28;20469;-83
2023/12/13 09:22:19;;;;;;;;;;;;;;;26.19;21.00;96656.19;5028124;28;19923;-83
2023/12/13 09:24:45;;;;;;;;;;;;;;;26.17;21.00;96650.28;5029033;28;19921;-83
2023/12/13 09:27:11;;;;;;;;;;;;;;;26.80;20.75;96654.50;5026961;28;20020;-84
2023/12/13 09:29:37;;;;;;;;;;;;;;;26.93;20.39;96647.31;5028504;28;20378;-84
2023/12/13 09:32:03;;;;;;;;;;;;;;;26.79;20.37;96648.13;5028681;28;19925;-84
2023/12/13 09:34:29;;;;;;;;;;;;;;;26.85;20.54;96648.19;5031759;28;19928;-84
2023/12/13 09:36:56;;;;;;;;;;;;;;;26.87;20.48;96645.66;5031509;28;19921;-84
2023/12/13 09:39:22;;;;;;;;;;;;;;;27.18;20.16;96643.09;5026291;28;19972;-84
2023/12/13 09:41:54;;;;;;;;;;;;;;;27.21;20.21;96640.06;5024763;28;20370;-84
2023/12/13 09:44:22;;;;;;;;;;;;;;;27.01;20.42;96650.50;5031632;28;20335;-84
2023/12/13 09:46:49;;;;;;;;;;;;;;;27.11;20.53;96647.09;5031743;28;20012;-84
2023/12/13 09:49:15;;;;;;;;;;;;;;;27.60;20.06;96648.34;5031449;28;19921;-84
2023/12/13 09:51:44;;;;;;;;;;;;;;;27.83;19.97;96642.50;5015100;28;19962;-84
2023/12/13 09:54:10;;;;;;;;;;;;;;;27.79;19.78;96647.56;5024387;28;19925;-84
2023/12/13 09:56:36;;;;;;;;;;;;;;;27.53;20.19;96648.75;5019061;28;20361;-84
2023/12/13 09:59:02;;;;;;;;;;;;;;;27.20;20.66;96646.97;5017772;28;20012;-84
2023/12/13 10:01:29;;;;;;;;;;;;;;;27.26;20.37;96641.41;5013128;28;19936;-84
2023/12/13 10:03:56;;;;;;;;;;;;;;;27.06;20.36;96644.97;5015718;28;20004;-84
2023/12/13 10:06:22;;;;;;;;;;;;;;;26.46;21.15;96647.50;5031299;28;19924;-84
2023/12/13 10:08:54;;;;;;;;;;;;;;;26.60;20.94;96644.69;5031379;28;19952;-84
2023/12/13 10:11:21;;;;;;;;;;;;;;;26.56;20.89;96638.47;5028680;28;19921;-84
2023/12/13 10:13:47;;;;;;;;;;;;;;;26.64;20.94;96638.84;5029568;28;19945;-84
2023/12/13 10:16:14;;;;;;;;;;;;;;;26.35;20.85;96628.38;5030903;28;19917;-84
2023/12/13 10:18:40;;;;;;;;;;;;;;;25.61;21.53;96632.25;5031414;28;20013;-84
2023/12/13 10:21:08;;;;;;;;;;;;;;;25.68;21.87;96642.34;5030820;28;19922;-84
2023/12/13 10:23:35;;;;;;;;;;;;;;;25.43;22.06;96640.78;5044772;28;22371;-84
2023/12/13 10:26:02;;;;;;;;;;;;;;;25.54;21.74;96637.44;5080364;28;19975;-84
2023/12/13 10:28:28;;;;;;;;;;;;;;;25.96;21.46;96633.25;5115190;28;19999;-82
2023/12/13 10:30:54;;;;;;;;;;;;;;;25.73;21.26;96636.06;5018601;28;20331;-84
2023/12/13 10:33:20;;;;;;;;;;;;;;;25.36;22.15;96630.69;5031577;28;19921;-84
2023/12/13 10:35:47;;;;;;;;;;;;;;;25.68;21.87;96631.09;5027538;28;19924;-84
2023/12/13 10:38:14;;;;;;;;;;;;;;;26.30;20.92;96626.22;5032323;28;19928;-84
2023/12/13 10:40:43;;;;;;;;;;;;;;;26.25;21.34;96612.06;5031873;28;19921;-84
2023/12/13 10:43:10;;;;;;;;;;;;;;;26.44;20.85;96617.00;5014999;28;20004;-84
2023/12/13 10:45:39;;;;;;;;;;;;;;;26.36;21.10;96607.41;5031972;28;20012;-84
2023/12/13 10:48:07;;;;;;;;;;;;;;;26.49;20.99;96612.75;5031535;28;19957;-84
2023/12/13 10:50:38;;;;;;;;;;;;;;;26.41;21.13;96603.94;5002495;28;20321;-84
2023/12/13 10:53:07;;;;;;;;;;;;;;;26.33;20.93;96608.38;5016559;28;19922;-85
2023/12/13 10:55:33;;;;;;;;;;;;;;;26.38;21.32;96609.72;5021873;28;19924;-84
2023/12/13 10:57:59;;;;;;;;;;;;;;;26.96;20.59;96601.25;5012741;28;19979;-84
2023/12/13 11:00:27;;;;;;;;;;;;;;;27.33;20.48;96591.03;5021741;28;19981;-84
2023/12/13 11:02:59;;;;;;;;;;;;;;;27.53;20.01;96598.78;5047966;27;20273;-84
2023/12/13 11:05:25;;;;;;;;;;;;;;;27.11;20.54;96595.59;5131814;27;20288;-86
2023/12/13 11:07:52;;;;;;;;;;;;;;;26.79;20.51;96585.38;5028358;28;20001;-83
2023/12/13 11:10:18;;;;;;;;;;;;;;;26.26;21.09;96586.25;5032452;28;20289;-83
2023/12/13 11:12:49;;;;;;;;;;;;;;;26.35;21.47;96574.91;5025895;28;20012;-83
2023/12/13 11:15:16;;;;;;;;;;;;;;;26.57;21.27;96569.66;5012551;28;19917;-83
2023/12/13 11:17:48;;;;;;;;;;;;;;;26.31;21.54;96565.09;5014960;28;19932;-84
2023/12/13 11:20:15;;;;;;;;;;;;;;;25.11;22.46;96560.16;5032281;28;19943;-83
2023/12/13 11:22:45;;;;;;;;;;;;;;;24.65;22.96;96562.38;5028861;28;19925;-84
2023/12/13 11:25:12;;;;;;;;;;;;;;;24.60;23.45;96557.38;5031437;28;19932;-83
2023/12/13 11:27:46;;;;;;;;;;;;;;;25.02;23.15;96546.16;5031931;28;20287;-85
2023/12/13 11:30:15;;;;;;;;;;;;;;;24.20;24.02;96537.28;5032176;28;19921;-84
2023/12/13 11:32:42;;;;;;;;;;;;;;;24.36;24.00;96534.13;5014202;28;19931;-84
2023/12/13 11:35:16;;;;;;;;;;;;;;;22.84;25.69;96528.84;5031704;28;20398;-84
2023/12/13 11:37:52;;;;;;;;;;;;;;;23.77;24.82;96524.41;5064338;28;19926;-85
2023/12/13 11:40:18;;;;;;;;;;;;;;;24.56;23.90;96523.13;5026899;28;20279;-84
2023/12/13 11:42:49;;;;;;;;;;;;;;;24.73;23.54;96529.91;5029155;28;19922;-84
2023/12/13 11:45:19;;;;;;;;;;;;;;;24.60;24.12;96515.28;5032141;28;19917;-85
2023/12/13 11:47:46;;;;;;;;;;;;;;;24.66;23.92;96510.59;5031478;28;19970;-85
2023/12/13 11:50:13;;;;;;;;;;;;;;;24.31;24.19;96517.94;5021545;28;20391;-85
2023/12/13 11:52:39;;;;;;;;;;;;;;;25.19;23.57;96513.56;5030268;28;19929;-85
2023/12/13 11:55:06;;;;;;;;;;;;;;;25.63;23.04;96511.69;5013197;28;20441;-85
2023/12/13 11:57:33;;;;;;;;;;;;;;;25.67;23.14;96509.44;5021214;28;20007;-85
2023/12/13 11:59:59;;;;;;;;;;;;;;;26.12;22.40;96499.81;5014989;28;19921;-86
2023/12/13 12:02:25;;;;;;;;;;;;;;;25.87;22.48;96503.19;5011662;28;19926;-85
2023/12/13 12:04:52;;;;;;;;;;;;;;;25.18;23.25;96501.56;5011746;28;20271;-86
2023/12/13 12:07:18;;;;;;;;;;;;;;;24.88;23.53;96502.69;5015082;28;19917;-85
2023/12/13 12:09:50;;;;;;;;;;;;;;;24.87;23.49;96506.78;5030719;28;20217;-85
2023/12/13 12:12:17;;;;;;;;;;;;;;;25.45;23.45;96506.22;5030947;28;20286;-84
2023/12/13 12:14:45;;;;;;;;;;;;;;;26.46;22.25;96518.03;5012910;28;19924;-84
2023/12/13 12:17:11;;;;;;;;;;;;;;;27.11;21.13;96517.50;5029777;28;19964;-84
2023/12/13 12:19:38;;;;;;;;;;;;;;;27.10;21.04;96515.13;5031198;28;20267;-84
2023/12/13 12:22:04;;;;;;;;;;;;;;;26.52;21.75;96516.06;5020396;28;19921;-84
2023/12/13 12:24:34;;;;;;;;;;;;;;;26.18;22.10;96523.19;5020133;28;19917;-84
2023/12/13 12:27:08;;;;;;;;;;;;;;;24.74;23.53;96521.00;5011339;28;19925;-84
2023/12/13 12:29:34;;;;;;;;;;;;;;;24.69;23.89;96518.84;5012564;28;20274;-84
2023/12/13 12:32:00;;;;;;;;;;;;;;;25.60;22.99;96531.56;5025509;28;19925;-84
2023/12/13 12:34:27;;;;;;;;;;;;;;;26.02;22.50;96535.66;5031188;28;20006;-84
2023/12/13 12:36:53;;;;;;;;;;;;;;;26.32;22.13;96535.72;5030136;28;19946;-83
2023/12/13 12:39:20;;;;;;;;;;;;;;;26.48;22.02;96538.81;5020204;28;19965;-84
2023/12/13 12:41:47;;;;;;;;;;;;;;;25.45;22.88;96542.75;5027356;28;19921;-84
2023/12/13 12:44:13;;;;;;;;;;;;;;;22.79;26.41;96543.47;5029041;28;19946;-83